sensor_id;sensor_type;location;lat;lon;timestamp;pressure;altitude;pressure_sealevel;temperature;humidity
49030;BME280;43337;52.070;4.508;2022-07-22T00:01:45;102350.88;;;16.47;76.25
49030;BME280;43337;52.070;4.508;2022-07-22T00:04:10;102359.72;;;16.47;76.39
49030;BME280;43337;52.070;4.508;2022-07-22T00:06:36;102355.34;;;16.46;76.32
49030;BME280;43337;52.070;4.508;2022-07-22T00:09:02;102356.06;;;16.50;76.34
49030;BME280;43337;52.070;4.508;2022-07-22T00:11:27;102367.56;;;16.50;76.32
49030;BME280;43337;52.070;4.508;2022-07-22T00:13:52;102359.72;;;16.47;76.53
49030;BME280;43337;52.070;4.508;2022-07-22T00:16:18;102359.59;;;16.50;76.47
49030;BME280;43337;52.070;4.508;2022-07-22T00:18:43;102344.63;;;16.48;76.27
49030;BME280;43337;52.070;4.508;2022-07-22T00:21:09;102333.38;;;16.41;76.20
49030;BME280;43337;52.070;4.508;2022-07-22T00:23:34;102349.06;;;16.47;76.01
49030;BME280;43337;52.070;4.508;2022-07-22T00:26:00;102358.66;;;16.51;76.20
49030;BME280;43337;52.070;4.508;2022-07-22T00:28:26;102340.38;;;16.44;76.12
49030;BME280;43337;52.070;4.508;2022-07-22T00:30:51;102340.25;;;16.47;76.12
49030;BME280;43337;52.070;4.508;2022-07-22T00:33:17;102339.44;;;16.45;76.10
49030;BME280;43337;52.070;4.508;2022-07-22T00:35:42;102320.25;;;16.38;75.87
49030;BME280;43337;52.070;4.508;2022-07-22T00:38:07;102350.53;;;16.54;76.16
49030;BME280;43337;52.070;4.508;2022-07-22T00:40:33;102349.69;;;16.54;76.04
49030;BME280;43337;52.070;4.508;2022-07-22T00:42:59;102347.03;;;16.54;76.06
49030;BME280;43337;52.070;4.508;2022-07-22T00:45:25;102345.22;;;16.54;75.82
49030;BME280;43337;52.070;4.508;2022-07-22T00:47:50;102289.00;;;16.23;75.81
49030;BME280;43337;52.070;4.508;2022-07-22T00:50:16;102332.00;;;16.53;76.05
49030;BME280;43337;52.070;4.508;2022-07-22T00:52:45;102322.56;;;16.46;75.93
49030;BME280;43337;52.070;4.508;2022-07-22T00:55:11;102331.94;;;16.54;75.89
49030;BME280;43337;52.070;4.508;2022-07-22T00:57:37;102325.03;;;16.50;75.79
49030;BME280;43337;52.070;4.508;2022-07-22T01:00:06;102337.25;;;16.54;75.60
49030;BME280;43337;52.070;4.508;2022-07-22T01:02:33;102322.56;;;16.46;75.49
49030;BME280;43337;52.070;4.508;2022-07-22T01:04:58;102331.94;;;16.54;75.38
49030;BME280;43337;52.070;4.508;2022-07-22T01:07:23;102327.56;;;16.53;75.25
49030;BME280;43337;52.070;4.508;2022-07-22T01:09:49;102303.28;;;16.41;75.04
49030;BME280;43337;52.070;4.508;2022-07-22T01:12:14;102324.09;;;16.51;75.23
49030;BME280;43337;52.070;4.508;2022-07-22T01:14:40;102331.13;;;16.52;75.12
49030;BME280;43337;52.070;4.508;2022-07-22T01:17:05;102326.69;;;16.53;74.96
49030;BME280;43337;52.070;4.508;2022-07-22T01:19:31;102331.13;;;16.52;75.20
49030;BME280;43337;52.070;4.508;2022-07-22T01:21:56;102316.31;;;16.47;74.88
49030;BME280;43337;52.070;4.508;2022-07-22T01:24:22;102327.69;;;16.50;75.31
49030;BME280;43337;52.070;4.508;2022-07-22T01:26:47;102325.06;;;16.49;74.94
49030;BME280;43337;52.070;4.508;2022-07-22T01:29:13;102304.41;;;16.35;74.78
49030;BME280;43337;52.070;4.508;2022-07-22T01:31:38;102307.94;;;16.35;74.87
49030;BME280;43337;52.070;4.508;2022-07-22T01:34:04;102316.72;;;16.38;74.76
49030;BME280;43337;52.070;4.508;2022-07-22T01:36:29;102308.75;;;16.38;75.00
49030;BME280;43337;52.070;4.508;2022-07-22T01:38:55;102294.03;;;16.29;74.62
49030;BME280;43337;52.070;4.508;2022-07-22T01:41:21;102304.28;;;16.38;74.61
49030;BME280;43337;52.070;4.508;2022-07-22T01:43:46;102317.16;;;16.47;74.52
49030;BME280;43337;52.070;4.508;2022-07-22T01:46:12;102311.97;;;16.44;74.44
49030;BME280;43337;52.070;4.508;2022-07-22T01:48:40;102312.25;;;16.38;74.39
49030;BME280;43337;52.070;4.508;2022-07-22T01:51:05;102310.38;;;16.40;74.58
49030;BME280;43337;52.070;4.508;2022-07-22T01:53:31;102323.47;;;16.45;74.61
49030;BME280;43337;52.070;4.508;2022-07-22T01:55:57;102318.13;;;16.46;74.55
49030;BME280;43337;52.070;4.508;2022-07-22T01:58:22;102294.66;;;16.35;74.73
49030;BME280;43337;52.070;4.508;2022-07-22T02:00:48;102318.13;;;16.46;74.88
49030;BME280;43337;52.070;4.508;2022-07-22T02:03:14;102305.16;;;16.39;74.91
49030;BME280;43337;52.070;4.508;2022-07-22T02:05:39;102320.81;;;16.45;74.89
49030;BME280;43337;52.070;4.508;2022-07-22T02:08:08;102301.47;;;16.41;75.06
49030;BME280;43337;52.070;4.508;2022-07-22T02:10:34;102306.78;;;16.41;75.04
49030;BME280;43337;52.070;4.508;2022-07-22T02:13:00;102293.78;;;16.35;75.21
49030;BME280;43337;52.070;4.508;2022-07-22T02:15:26;102310.19;;;16.45;75.01
49030;BME280;43337;52.070;4.508;2022-07-22T02:17:52;102301.69;;;16.36;74.79
49030;BME280;43337;52.070;4.508;2022-07-22T02:20:18;102287.75;;;16.31;74.94
49030;BME280;43337;52.070;4.508;2022-07-22T02:22:44;102314.59;;;16.46;75.05
49030;BME280;43337;52.070;4.508;2022-07-22T02:25:10;102313.00;;;16.42;75.06
49030;BME280;43337;52.070;4.508;2022-07-22T02:27:36;102310.19;;;16.45;74.85
49030;BME280;43337;52.070;4.508;2022-07-22T02:30:04;102297.09;;;16.40;75.03
49030;BME280;43337;52.070;4.508;2022-07-22T02:32:29;102287.59;;;16.34;75.10
49030;BME280;43337;52.070;4.508;2022-07-22T02:34:54;102283.28;;;16.32;74.91
49030;BME280;43337;52.070;4.508;2022-07-22T02:37:20;102302.28;;;16.43;75.12
49030;BME280;43337;52.070;4.508;2022-07-22T02:39:45;102297.84;;;16.44;75.02
49030;BME280;43337;52.070;4.508;2022-07-22T02:42:11;102297.78;;;16.45;75.30
49030;BME280;43337;52.070;4.508;2022-07-22T02:44:36;102300.44;;;16.45;75.47
49030;BME280;43337;52.070;4.508;2022-07-22T02:47:01;102303.09;;;16.45;75.39
49030;BME280;43337;52.070;4.508;2022-07-22T02:49:27;102246.81;;;16.15;75.28
49030;BME280;43337;52.070;4.508;2022-07-22T02:51:52;102268.31;;;16.29;75.34
49030;BME280;43337;52.070;4.508;2022-07-22T02:54:17;102293.50;;;16.41;75.14
49030;BME280;43337;52.070;4.508;2022-07-22T02:56:43;102292.47;;;16.45;75.31
49030;BME280;43337;52.070;4.508;2022-07-22T02:59:08;102294.19;;;16.46;75.38
49030;BME280;43337;52.070;4.508;2022-07-22T03:01:34;102245.75;;;16.19;75.34
49030;BME280;43337;52.070;4.508;2022-07-22T03:03:59;102250.06;;;16.22;75.29
49030;BME280;43337;52.070;4.508;2022-07-22T03:06:25;102288.13;;;16.43;75.25
49030;BME280;43337;52.070;4.508;2022-07-22T03:08:50;102283.06;;;16.36;75.22
49030;BME280;43337;52.070;4.508;2022-07-22T03:11:16;102275.44;;;16.29;75.21
49030;BME280;43337;52.070;4.508;2022-07-22T03:13:41;102290.84;;;16.41;75.23
49030;BME280;43337;52.070;4.508;2022-07-22T03:16:06;102244.09;;;16.17;75.33
49030;BME280;43337;52.070;4.508;2022-07-22T03:18:34;102290.84;;;16.41;75.47
49030;BME280;43337;52.070;4.508;2022-07-22T03:20:59;102294.38;;;16.42;75.44
49030;BME280;43337;52.070;4.508;2022-07-22T03:23:24;102280.63;;;16.32;75.36
49030;BME280;43337;52.070;4.508;2022-07-22T03:25:50;102269.38;;;16.25;75.44
49030;BME280;43337;52.070;4.508;2022-07-22T03:28:15;102295.25;;;16.42;75.22
49030;BME280;43337;52.070;4.508;2022-07-22T03:30:41;102268.31;;;16.29;75.10
49030;BME280;43337;52.070;4.508;2022-07-22T03:33:06;102297.78;;;16.45;74.81
49030;BME280;43337;52.070;4.508;2022-07-22T03:35:31;102303.97;;;16.46;74.59
49030;BME280;43337;52.070;4.508;2022-07-22T03:37:57;102299.50;;;16.46;74.55
49030;BME280;43337;52.070;4.508;2022-07-22T03:40:22;102286.41;;;16.42;74.36
49030;BME280;43337;52.070;4.508;2022-07-22T03:42:48;102275.19;;;16.35;74.37
49030;BME280;43337;52.070;4.508;2022-07-22T03:45:13;102297.69;;;16.47;74.23
49030;BME280;43337;52.070;4.508;2022-07-22T03:47:38;102279.34;;;16.41;74.16
49030;BME280;43337;52.070;4.508;2022-07-22T03:50:04;102278.50;;;16.40;74.13
49030;BME280;43337;52.070;4.508;2022-07-22T03:52:30;102275.78;;;16.42;73.86
49030;BME280;43337;52.070;4.508;2022-07-22T03:54:55;102288.78;;;16.48;74.02
49030;BME280;43337;52.070;4.508;2022-07-22T03:57:20;102285.34;;;16.46;73.91
49030;BME280;43337;52.070;4.508;2022-07-22T03:59:47;102282.94;;;16.40;73.79
49030;BME280;43337;52.070;4.508;2022-07-22T04:02:12;102277.84;;;16.35;73.86
49030;BME280;43337;52.070;4.508;2022-07-22T04:04:38;102256.38;;;16.19;73.72
49030;BME280;43337;52.070;4.508;2022-07-22T04:07:03;102265.88;;;16.25;73.99
49030;BME280;43337;52.070;4.508;2022-07-22T04:09:29;102298.47;;;16.49;73.96
49030;BME280;43337;52.070;4.508;2022-07-22T04:11:55;102299.63;;;16.43;73.95
49030;BME280;43337;52.070;4.508;2022-07-22T04:14:20;102305.59;;;16.48;74.18
49030;BME280;43337;52.070;4.508;2022-07-22T04:16:46;102293.50;;;16.41;74.51
49030;BME280;43337;52.070;4.508;2022-07-22T04:19:12;102304.75;;;16.48;74.68
49030;BME280;43337;52.070;4.508;2022-07-22T04:21:38;102292.81;;;16.38;74.73
49030;BME280;43337;52.070;4.508;2022-07-22T04:24:04;102285.69;;;16.38;74.74
49030;BME280;43337;52.070;4.508;2022-07-22T04:26:29;102294.31;;;16.43;74.77
49030;BME280;43337;52.070;4.508;2022-07-22T04:28:55;102240.56;;;16.16;74.71
49030;BME280;43337;52.070;4.508;2022-07-22T04:31:20;102301.09;;;16.50;75.01
49030;BME280;43337;52.070;4.508;2022-07-22T04:33:45;102279.31;;;16.42;74.57
49030;BME280;43337;52.070;4.508;2022-07-22T04:36:11;102267.97;;;16.37;74.33
49030;BME280;43337;52.070;4.508;2022-07-22T04:38:36;102292.25;;;16.50;74.50
49030;BME280;43337;52.070;4.508;2022-07-22T04:41:02;102254.13;;;16.30;74.34
49030;BME280;43337;52.070;4.508;2022-07-22T04:43:27;102290.34;;;16.53;74.27
49030;BME280;43337;52.070;4.508;2022-07-22T04:45:53;102278.28;;;16.45;74.18
49030;BME280;43337;52.070;4.508;2022-07-22T04:48:19;102289.38;;;16.54;74.04
49030;BME280;43337;52.070;4.508;2022-07-22T04:50:45;102265.19;;;16.40;73.87
49030;BME280;43337;52.070;4.508;2022-07-22T04:53:10;102285.00;;;16.53;73.70
49030;BME280;43337;52.070;4.508;2022-07-22T04:55:36;102272.91;;;16.46;73.46
49030;BME280;43337;52.070;4.508;2022-07-22T04:58:01;102240.03;;;16.28;73.42
49030;BME280;43337;52.070;4.508;2022-07-22T05:00:27;102255.63;;;16.36;73.36
49030;BME280;43337;52.070;4.508;2022-07-22T05:02:53;102294.63;;;16.56;73.52
49030;BME280;43337;52.070;4.508;2022-07-22T05:05:18;102267.84;;;16.40;73.44
49030;BME280;43337;52.070;4.508;2022-07-22T05:07:43;102282.41;;;16.52;73.43
49030;BME280;43337;52.070;4.508;2022-07-22T05:10:09;102284.00;;;16.56;73.20
49030;BME280;43337;52.070;4.508;2022-07-22T05:12:35;102297.81;;;16.64;73.24
49030;BME280;43337;52.070;4.508;2022-07-22T05:15:01;102290.63;;;16.66;72.87
49030;BME280;43337;52.070;4.508;2022-07-22T05:17:27;102293.16;;;16.69;72.85
49030;BME280;43337;52.070;4.508;2022-07-22T05:19:53;102283.59;;;16.65;72.69
49030;BME280;43337;52.070;4.508;2022-07-22T05:22:18;102294.81;;;16.72;72.70
49030;BME280;43337;52.070;4.508;2022-07-22T05:24:44;102292.13;;;16.72;72.65
49030;BME280;43337;52.070;4.508;2022-07-22T05:27:09;102287.75;;;16.71;72.44
49030;BME280;43337;52.070;4.508;2022-07-22T05:29:34;102271.22;;;16.64;72.39
49030;BME280;43337;52.070;4.508;2022-07-22T05:32:00;102288.53;;;16.74;72.42
49030;BME280;43337;52.070;4.508;2022-07-22T05:34:25;102266.78;;;16.65;72.57
49030;BME280;43337;52.070;4.508;2022-07-22T05:36:51;102273.69;;;16.69;72.51
49030;BME280;43337;52.070;4.508;2022-07-22T05:39:17;102295.31;;;16.81;72.30
49030;BME280;43337;52.070;4.508;2022-07-22T05:41:42;102259.72;;;16.64;72.11
49030;BME280;43337;52.070;4.508;2022-07-22T05:44:07;102276.81;;;16.78;72.15
49030;BME280;43337;52.070;4.508;2022-07-22T05:46:33;102270.84;;;16.73;72.00
49030;BME280;43337;52.070;4.508;2022-07-22T05:48:58;102296.75;;;16.89;72.20
49030;BME280;43337;52.070;4.508;2022-07-22T05:51:23;102294.13;;;16.87;72.06
49030;BME280;43337;52.070;4.508;2022-07-22T05:53:49;102285.31;;;16.87;72.09
49030;BME280;43337;52.070;4.508;2022-07-22T05:56:14;102275.69;;;16.84;72.13
49030;BME280;43337;52.070;4.508;2022-07-22T05:58:41;102294.47;;;17.00;72.04
49030;BME280;43337;52.070;4.508;2022-07-22T06:01:08;102292.53;;;17.03;71.98
49030;BME280;43337;52.070;4.508;2022-07-22T06:03:34;102298.50;;;17.08;72.05
49030;BME280;43337;52.070;4.508;2022-07-22T06:06:00;102275.75;;;17.01;71.98
49030;BME280;43337;52.070;4.508;2022-07-22T06:08:27;102267.06;;;16.98;71.80
49030;BME280;43337;52.070;4.508;2022-07-22T06:10:53;102270.88;;;17.11;71.69
49030;BME280;43337;52.070;4.508;2022-07-22T06:13:18;102268.94;;;17.15;71.58
49030;BME280;43337;52.070;4.508;2022-07-22T06:15:44;102279.94;;;17.26;71.44
49030;BME280;43337;52.070;4.508;2022-07-22T06:18:09;102294.66;;;17.33;71.31
49030;BME280;43337;52.070;4.508;2022-07-22T06:20:35;102278.88;;;17.30;71.14
49030;BME280;43337;52.070;4.508;2022-07-22T06:23:00;102273.19;;;17.38;71.28
49030;BME280;43337;52.070;4.508;2022-07-22T06:25:26;102260.06;;;17.33;71.21
49030;BME280;43337;52.070;4.508;2022-07-22T06:27:51;102274.44;;;17.48;71.00
49030;BME280;43337;52.070;4.508;2022-07-22T06:30:17;102266.38;;;17.49;70.97
49030;BME280;43337;52.070;4.508;2022-07-22T06:32:42;102286.22;;;17.61;70.80
49030;BME280;43337;52.070;4.508;2022-07-22T06:35:08;102261.84;;;17.51;70.55
49030;BME280;43337;52.070;4.508;2022-07-22T06:37:33;102268.69;;;17.57;70.70
49030;BME280;43337;52.070;4.508;2022-07-22T06:39:58;102252.91;;;17.52;70.66
49030;BME280;43337;52.070;4.508;2022-07-22T06:42:24;102273.63;;;17.65;70.26
49030;BME280;43337;52.070;4.508;2022-07-22T06:44:50;102239.66;;;17.51;70.21
49030;BME280;43337;52.070;4.508;2022-07-22T06:47:16;102236.16;;;17.50;70.09
49030;BME280;43337;52.070;4.508;2022-07-22T06:49:41;102286.13;;;17.81;69.92
49030;BME280;43337;52.070;4.508;2022-07-22T06:52:07;102287.78;;;17.84;69.72
49030;BME280;43337;52.070;4.508;2022-07-22T06:54:32;102284.56;;;17.77;69.45
49030;BME280;43337;52.070;4.508;2022-07-22T06:56:58;102268.78;;;17.73;69.33
49030;BME280;43337;52.070;4.508;2022-07-22T06:59:24;102274.91;;;17.75;69.26
49030;BME280;43337;52.070;4.508;2022-07-22T07:01:49;102269.44;;;17.78;69.24
49030;BME280;43337;52.070;4.508;2022-07-22T07:04:15;102278.75;;;17.87;69.37
49030;BME280;43337;52.070;4.508;2022-07-22T07:06:41;102287.22;;;17.95;69.10
49030;BME280;43337;52.070;4.508;2022-07-22T07:09:07;102278.56;;;17.91;69.09
49030;BME280;43337;52.070;4.508;2022-07-22T07:11:34;102293.28;;;17.98;69.06
49030;BME280;43337;52.070;4.508;2022-07-22T07:14:00;102266.53;;;17.83;69.11
49030;BME280;43337;52.070;4.508;2022-07-22T07:16:25;102283.00;;;17.91;69.19
49030;BME280;43337;52.070;4.508;2022-07-22T07:18:51;102296.84;;;17.99;68.82
49030;BME280;43337;52.070;4.508;2022-07-22T07:21:16;102293.50;;;17.94;68.83
49030;BME280;43337;52.070;4.508;2022-07-22T07:23:41;102281.28;;;17.90;68.84
49030;BME280;43337;52.070;4.508;2022-07-22T07:26:07;102273.53;;;17.85;68.61
49030;BME280;43337;52.070;4.508;2022-07-22T07:28:33;102292.66;;;17.93;68.40
49030;BME280;43337;52.070;4.508;2022-07-22T07:30:58;102279.63;;;17.87;68.50
49030;BME280;43337;52.070;4.508;2022-07-22T07:33:23;102280.41;;;17.89;67.90
49030;BME280;43337;52.070;4.508;2022-07-22T07:35:49;102295.94;;;17.98;67.80
49030;BME280;43337;52.070;4.508;2022-07-22T07:38:15;102274.22;;;17.89;67.51
49030;BME280;43337;52.070;4.508;2022-07-22T07:40:41;102295.88;;;18.00;67.28
49030;BME280;43337;52.070;4.508;2022-07-22T07:43:06;102298.53;;;18.00;67.11
49030;BME280;43337;52.070;4.508;2022-07-22T07:45:32;102293.44;;;17.95;67.12
49030;BME280;43337;52.070;4.508;2022-07-22T07:47:58;102277.03;;;17.86;66.89
49030;BME280;43337;52.070;4.508;2022-07-22T07:50:26;102289.91;;;17.95;66.94
49030;BME280;43337;52.070;4.508;2022-07-22T07:52:52;102291.31;;;18.02;66.97
49030;BME280;43337;52.070;4.508;2022-07-22T07:55:19;102264.53;;;17.88;66.89
49030;BME280;43337;52.070;4.508;2022-07-22T07:57:44;102288.25;;;18.10;66.88
49030;BME280;43337;52.070;4.508;2022-07-22T08:00:14;102279.72;;;18.20;66.94
49030;BME280;43337;52.070;4.508;2022-07-22T08:02:40;102239.97;;;17.98;66.75
49030;BME280;43337;52.070;4.508;2022-07-22T08:05:07;102272.81;;;18.16;66.46
49030;BME280;43337;52.070;4.508;2022-07-22T08:07:32;102279.28;;;18.29;66.40
49030;BME280;43337;52.070;4.508;2022-07-22T08:09:58;102249.53;;;18.20;66.02
49030;BME280;43337;52.070;4.508;2022-07-22T08:12:23;102272.94;;;18.48;66.01
49030;BME280;43337;52.070;4.508;2022-07-22T08:14:49;102277.13;;;18.53;66.03
49030;BME280;43337;52.070;4.508;2022-07-22T08:17:14;102252.72;;;18.44;65.63
49030;BME280;43337;52.070;4.508;2022-07-22T08:19:40;102244.56;;;18.47;65.05
49030;BME280;43337;52.070;4.508;2022-07-22T08:22:05;102228.00;;;18.40;64.97
49030;BME280;43337;52.070;4.508;2022-07-22T08:24:33;102247.69;;;18.55;65.00
49030;BME280;43337;52.070;4.508;2022-07-22T08:26:59;102266.25;;;18.74;64.82
49030;BME280;43337;52.070;4.508;2022-07-22T08:29:25;102252.16;;;18.72;64.84
49030;BME280;43337;52.070;4.508;2022-07-22T08:31:51;102271.38;;;18.94;64.63
49030;BME280;43337;52.070;4.508;2022-07-22T08:34:16;102257.84;;;18.97;64.28
49030;BME280;43337;52.070;4.508;2022-07-22T08:36:45;102237.63;;;18.93;63.61
49030;BME280;43337;52.070;4.508;2022-07-22T08:39:10;102253.31;;;19.15;63.44
49030;BME280;43337;52.070;4.508;2022-07-22T08:41:37;102258.06;;;19.26;63.14
49030;BME280;43337;52.070;4.508;2022-07-22T08:44:06;102259.41;;;19.33;63.09
49030;BME280;43337;52.070;4.508;2022-07-22T08:46:32;102262.53;;;19.41;63.15
49030;BME280;43337;52.070;4.508;2022-07-22T08:48:58;102272.09;;;19.45;62.94
49030;BME280;43337;52.070;4.508;2022-07-22T08:51:26;102243.31;;;19.35;62.99
49030;BME280;43337;52.070;4.508;2022-07-22T08:53:52;102253.97;;;19.50;62.81
49030;BME280;43337;52.070;4.508;2022-07-22T08:56:17;102254.25;;;19.62;62.35
49030;BME280;43337;52.070;4.508;2022-07-22T08:58:43;102214.09;;;19.47;62.00
49030;BME280;43337;52.070;4.508;2022-07-22T09:01:13;102233.03;;;19.59;61.75
49030;BME280;43337;52.070;4.508;2022-07-22T09:06:11;102220.22;;;19.49;61.50
49030;BME280;43337;52.070;4.508;2022-07-22T09:08:53;102244.78;;;19.72;61.47
49030;BME280;43337;52.070;4.508;2022-07-22T09:11:20;102236.19;;;19.81;61.37
49030;BME280;43337;52.070;4.508;2022-07-22T09:13:46;102252.88;;;20.00;61.18
49030;BME280;43337;52.070;4.508;2022-07-22T09:16:12;102211.84;;;19.86;61.39
49030;BME280;43337;52.070;4.508;2022-07-22T09:18:49;102240.78;;;20.23;61.47
49030;BME280;43337;52.070;4.508;2022-07-22T09:21:16;102240.81;;;20.38;61.11
49030;BME280;43337;52.070;4.508;2022-07-22T09:23:42;102209.19;;;20.30;60.62
49030;BME280;43337;52.070;4.508;2022-07-22T09:26:09;102218.72;;;20.34;60.27
49030;BME280;43337;52.070;4.508;2022-07-22T09:28:58;102233.47;;;20.41;60.00
49030;BME280;43337;52.070;4.508;2022-07-22T09:31:29;102240.31;;;20.31;59.83
49030;BME280;43337;52.070;4.508;2022-07-22T09:33:57;102213.72;;;20.14;59.87
49030;BME280;43337;52.070;4.508;2022-07-22T09:36:22;102221.00;;;20.12;59.51
49030;BME280;43337;52.070;4.508;2022-07-22T09:38:48;102257.69;;;20.24;59.44
49030;BME280;43337;52.070;4.508;2022-07-22T09:41:14;102258.06;;;20.18;59.29
49030;BME280;43337;52.070;4.508;2022-07-22T09:43:40;102240.44;;;19.99;59.75
49030;BME280;43337;52.070;4.508;2022-07-22T09:46:05;102233.41;;;19.83;60.04
49030;BME280;43337;52.070;4.508;2022-07-22T09:48:31;102240.31;;;19.87;60.24
49030;BME280;43337;52.070;4.508;2022-07-22T09:50:57;102234.09;;;19.86;59.78
49030;BME280;43337;52.070;4.508;2022-07-22T09:53:25;102255.53;;;20.00;59.70
49030;BME280;43337;52.070;4.508;2022-07-22T09:55:53;102271.28;;;20.05;59.54
49030;BME280;43337;52.070;4.508;2022-07-22T09:58:19;102230.97;;;19.94;59.65
49030;BME280;43337;52.070;4.508;2022-07-22T10:00:44;102243.34;;;20.11;59.58
49030;BME280;43337;52.070;4.508;2022-07-22T10:03:31;102245.44;;;20.20;59.34
49030;BME280;43337;52.070;4.508;2022-07-22T10:05:58;102270.13;;;20.39;59.50
49030;BME280;43337;52.070;4.508;2022-07-22T10:08:27;102252.25;;;20.26;59.30
49030;BME280;43337;52.070;4.508;2022-07-22T10:10:59;102270.03;;;20.41;59.40
49030;BME280;43337;52.070;4.508;2022-07-22T10:13:25;102278.41;;;20.51;58.91
49030;BME280;43337;52.070;4.508;2022-07-22T10:15:51;102263.34;;;20.48;58.61
49030;BME280;43337;52.070;4.508;2022-07-22T10:18:18;102263.88;;;20.55;58.58
49030;BME280;43337;52.070;4.508;2022-07-22T10:20:44;102261.97;;;20.57;58.42
49030;BME280;43337;52.070;4.508;2022-07-22T10:23:11;102257.00;;;20.51;58.00
49030;BME280;43337;52.070;4.508;2022-07-22T10:28:32;102261.09;;;20.56;58.64
49030;BME280;43337;52.070;4.508;2022-07-22T10:31:28;102279.16;;;20.67;58.45
49030;BME280;43337;52.070;4.508;2022-07-22T10:33:55;102274.47;;;20.70;58.16
49030;BME280;43337;52.070;4.508;2022-07-22T10:36:39;102282.44;;;20.72;58.21
49030;BME280;43337;52.070;4.508;2022-07-22T10:39:12;102270.09;;;20.69;57.79
49030;BME280;43337;52.070;4.508;2022-07-22T10:41:40;102274.84;;;20.79;57.74
49030;BME280;43337;52.070;4.508;2022-07-22T10:44:08;102275.72;;;20.79;57.79
49030;BME280;43337;52.070;4.508;2022-07-22T10:46:54;102274.38;;;20.86;57.76
49030;BME280;43337;52.070;4.508;2022-07-22T10:49:23;102263.59;;;20.88;57.36
49030;BME280;43337;52.070;4.508;2022-07-22T10:52:16;102261.94;;;21.00;58.10
49030;BME280;43337;52.070;4.508;2022-07-22T10:55:17;102245.75;;;21.15;58.11
49030;BME280;43337;52.070;4.508;2022-07-22T10:57:42;102255.47;;;21.31;57.93
49030;BME280;43337;52.070;4.508;2022-07-22T11:00:08;102243.13;;;21.42;57.48
49030;BME280;43337;52.070;4.508;2022-07-22T11:02:36;102227.84;;;21.57;56.96
49030;BME280;43337;52.070;4.508;2022-07-22T11:05:03;102213.34;;;21.60;56.69
49030;BME280;43337;52.070;4.508;2022-07-22T11:07:29;102218.56;;;21.76;56.59
49030;BME280;43337;52.070;4.508;2022-07-22T11:10:08;102228.13;;;21.92;56.45
49030;BME280;43337;52.070;4.508;2022-07-22T11:12:34;102226.75;;;22.12;56.21
49030;BME280;43337;52.070;4.508;2022-07-22T11:15:04;102231.63;;;22.33;56.32
49030;BME280;43337;52.070;4.508;2022-07-22T11:17:31;102201.25;;;22.32;55.62
49030;BME280;43337;52.070;4.508;2022-07-22T11:20:00;102217.53;;;22.67;55.14
49030;BME280;43337;52.070;4.508;2022-07-22T11:22:26;102229.13;;;22.81;54.81
49030;BME280;43337;52.070;4.508;2022-07-22T11:24:52;102223.41;;;22.85;54.39
49030;BME280;43337;52.070;4.508;2022-07-22T11:27:19;102207.69;;;22.68;53.99
49030;BME280;43337;52.070;4.508;2022-07-22T11:29:49;102214.00;;;22.67;53.36
49030;BME280;43337;52.070;4.508;2022-07-22T11:32:16;102222.47;;;22.74;53.25
49030;BME280;43337;52.070;4.508;2022-07-22T11:34:44;102187.31;;;22.53;53.01
49030;BME280;43337;52.070;4.508;2022-07-22T11:37:21;102218.25;;;22.82;53.03
49030;BME280;43337;52.070;4.508;2022-07-22T11:39:51;102193.34;;;22.80;52.69
49030;BME280;43337;52.070;4.508;2022-07-22T11:42:17;102207.94;;;22.89;52.71
49030;BME280;43337;52.070;4.508;2022-07-22T11:44:42;102180.66;;;22.82;52.73
49030;BME280;43337;52.070;4.508;2022-07-22T11:47:09;102185.72;;;22.87;52.36
49030;BME280;43337;52.070;4.508;2022-07-22T11:49:37;102151.59;;;22.63;51.64
49030;BME280;43337;52.070;4.508;2022-07-22T11:52:04;102141.41;;;22.56;52.16
49030;BME280;43337;52.070;4.508;2022-07-22T11:54:30;102180.91;;;22.79;51.95
49030;BME280;43337;52.070;4.508;2022-07-22T11:56:55;102140.22;;;22.60;51.90
49030;BME280;43337;52.070;4.508;2022-07-22T11:59:21;102163.81;;;22.80;51.76
49030;BME280;43337;52.070;4.508;2022-07-22T12:01:48;102182.16;;;22.86;51.57
49030;BME280;43337;52.070;4.508;2022-07-22T12:04:19;102166.03;;;22.86;52.03
49030;BME280;43337;52.070;4.508;2022-07-22T12:06:45;102179.56;;;22.98;51.11
49030;BME280;43337;52.070;4.508;2022-07-22T12:09:12;102189.53;;;23.08;50.89
49030;BME280;43337;52.070;4.508;2022-07-22T12:11:41;102147.69;;;22.93;51.07
49030;BME280;43337;52.070;4.508;2022-07-22T12:14:09;102147.88;;;22.90;50.86
49030;BME280;43337;52.070;4.508;2022-07-22T12:16:36;102182.22;;;23.10;50.53
49030;BME280;43337;52.070;4.508;2022-07-22T12:19:08;102170.44;;;23.00;50.52
49030;BME280;43337;52.070;4.508;2022-07-22T12:24:14;102171.47;;;23.10;50.50
49030;BME280;43337;52.070;4.508;2022-07-22T12:26:57;102124.38;;;22.81;50.67
49030;BME280;43337;52.070;4.508;2022-07-22T12:29:40;102132.84;;;23.00;50.79
49030;BME280;43337;52.070;4.508;2022-07-22T12:32:15;102178.91;;;23.31;50.59
49030;BME280;43337;52.070;4.508;2022-07-22T12:35:01;102187.88;;;23.43;50.50
49030;BME280;43337;52.070;4.508;2022-07-22T12:42:21;102171.66;;;23.55;49.69
49030;BME280;43337;52.070;4.508;2022-07-22T12:45:17;102162.13;;;23.51;49.59
49030;BME280;43337;52.070;4.508;2022-07-22T12:50:32;102146.75;;;23.53;49.33
49030;BME280;43337;52.070;4.508;2022-07-22T12:53:06;102155.69;;;23.65;49.40
49030;BME280;43337;52.070;4.508;2022-07-22T12:55:53;102138.47;;;23.68;48.88
49030;BME280;43337;52.070;4.508;2022-07-22T12:58:31;102138.81;;;23.63;48.94
49030;BME280;43337;52.070;4.508;2022-07-22T13:01:00;102168.25;;;23.88;48.36
49030;BME280;43337;52.070;4.508;2022-07-22T13:03:26;102171.78;;;23.89;48.27
49030;BME280;43337;52.070;4.508;2022-07-22T13:05:53;102173.63;;;23.88;48.40